createdAt,value
2019-02-04T00:04:25.232Z,6.67
2019-02-04T00:10:29.459Z,6.70
2019-02-04T00:16:40.609Z,5.57
2019-02-04T00:22:40.056Z,6.27
2019-02-04T00:28:45.032Z,5.57
2019-02-04T00:34:49.298Z,6.47
2019-02-04T00:40:53.654Z,7.17
2019-02-04T00:46:57.928Z,5.43
2019-02-04T00:53:03.766Z,9.60
2019-02-04T00:59:10.168Z,5.03
2019-02-04T01:05:18.218Z,5.03
2019-02-04T01:11:22.648Z,4.80
2019-02-04T01:17:27.204Z,4.53
2019-02-04T01:23:31.508Z,4.13
2019-02-04T01:29:35.771Z,4.77
2019-02-04T01:35:40.415Z,4.13
2019-02-04T01:41:44.750Z,5.00
2019-02-04T01:47:49.279Z,4.60
2019-02-04T01:53:54.052Z,4.90
2019-02-04T01:59:58.249Z,4.83
2019-02-04T02:06:02.650Z,4.80
2019-02-04T02:12:07.180Z,7.43
2019-02-04T02:18:11.976Z,6.40
2019-02-04T02:24:16.390Z,4.80
2019-02-04T02:30:26.715Z,4.30
2019-02-04T02:36:31.041Z,4.93
2019-02-04T02:42:35.389Z,4.73
2019-02-04T02:48:39.653Z,5.97
2019-02-04T02:54:43.938Z,5.07
2019-02-04T03:00:48.205Z,5.13
2019-02-04T03:06:52.555Z,5.17
2019-02-04T03:12:57.129Z,4.83
2019-02-04T03:19:01.442Z,5.27
2019-02-04T03:25:06.394Z,4.77
2019-02-04T03:31:10.683Z,4.80
2019-02-04T03:37:15.053Z,4.73
2019-02-04T03:43:19.494Z,4.10
2019-02-04T03:49:23.877Z,4.05
2019-02-04T03:55:28.106Z,4.42
2019-02-04T04:01:32.611Z,3.70
2019-02-04T04:07:36.951Z,3.87
2019-02-04T04:13:41.457Z,3.45
2019-02-04T04:19:45.737Z,4.17
2019-02-04T04:25:49.914Z,4.08
2019-02-04T04:31:54.490Z,3.92
2019-02-04T04:37:58.797Z,3.87
2019-02-04T04:44:06.329Z,3.47
2019-02-04T04:50:11.162Z,3.30
2019-02-04T04:56:15.514Z,3.40
2019-02-04T05:02:19.892Z,3.55
2019-02-04T05:08:24.140Z,3.47
2019-02-04T05:14:28.458Z,4.60
2019-02-04T05:20:32.823Z,3.90
2019-02-04T05:26:37.048Z,4.20
2019-02-04T05:32:44.251Z,2.98
2019-02-04T05:38:48.616Z,5.25
2019-02-04T05:44:53.013Z,5.50
2019-02-04T05:50:57.740Z,6.15
2019-02-04T05:57:01.960Z,6.90
2019-02-04T06:03:06.448Z,5.73
2019-02-04T06:09:11.079Z,5.47
2019-02-04T06:15:15.542Z,4.87
2019-02-04T06:21:19.761Z,3.93
2019-02-04T06:27:24.708Z,5.73
2019-02-04T06:33:29.056Z,6.57
2019-02-04T06:39:33.418Z,6.67
2019-02-04T06:45:37.677Z,6.33
2019-02-04T06:51:42.451Z,6.23
2019-02-04T06:57:46.665Z,7.27
2019-02-04T07:03:50.945Z,6.53
2019-02-04T07:09:55.279Z,6.37
2019-02-04T07:15:59.568Z,6.53
2019-02-04T07:22:04.042Z,6.15
2019-02-04T07:28:08.325Z,4.67
2019-02-04T07:34:12.799Z,4.90
2019-02-04T07:40:19.409Z,5.33
2019-02-04T07:46:25.069Z,4.58
2019-02-04T07:52:29.441Z,5.42
2019-02-04T07:58:33.807Z,4.90
2019-02-04T08:04:38.107Z,5.90
2019-02-04T08:10:42.395Z,8.18
2019-02-04T08:16:46.773Z,4.50
2019-02-04T08:22:51.138Z,2.47
2019-02-04T08:28:55.324Z,3.30
2019-02-04T08:35:00.012Z,3.67
2019-02-04T08:41:04.288Z,3.50
2019-02-04T08:47:08.655Z,3.77
2019-02-04T08:53:13.054Z,4.20
2019-02-04T08:59:17.598Z,3.30
2019-02-04T09:05:22.382Z,4.10
2019-02-04T09:11:26.816Z,4.97
2019-02-04T09:17:31.270Z,4.92
2019-02-04T09:23:35.862Z,4.30
2019-02-04T09:29:43.214Z,5.37
2019-02-04T09:35:47.570Z,4.53
2019-02-04T09:41:51.880Z,4.60
2019-02-04T09:47:56.167Z,3.25
2019-02-04T09:54:00.549Z,4.95
2019-02-04T10:00:05.605Z,4.58
2019-02-04T10:06:12.972Z,2.90
2019-02-04T10:12:17.243Z,5.75
2019-02-04T10:18:21.500Z,4.17
2019-02-04T10:24:25.862Z,4.72
2019-02-04T10:30:30.368Z,4.03
2019-02-04T10:36:34.843Z,5.55
2019-02-04T10:42:39.185Z,4.00
2019-02-04T10:48:43.494Z,3.10
2019-02-04T10:54:48.105Z,2.98
2019-02-04T11:00:52.936Z,4.62
2019-02-04T11:06:57.210Z,4.85
2019-02-04T11:13:01.729Z,4.67
2019-02-04T11:19:06.470Z,4.50
2019-02-04T11:25:11.201Z,3.42
2019-02-04T11:31:15.715Z,4.35
2019-02-04T11:37:20.018Z,2.80
2019-02-04T11:43:24.584Z,3.30
2019-02-04T11:49:29.048Z,4.58
2019-02-04T11:55:33.355Z,3.42
2019-02-04T12:01:38.308Z,4.70
2019-02-04T12:07:42.702Z,2.85
2019-02-04T12:13:47.166Z,3.27
2019-02-04T12:19:51.385Z,4.03
2019-02-04T12:25:55.651Z,3.98
2019-02-04T12:31:59.999Z,2.60
2019-02-04T12:38:04.369Z,3.35
2019-02-04T12:44:08.982Z,2.90
2019-02-04T12:50:13.414Z,4.40
2019-02-04T12:56:17.722Z,3.70
2019-02-04T13:02:21.918Z,5.72
2019-02-04T13:08:26.409Z,6.78
2019-02-04T13:14:30.863Z,3.80
2019-02-04T13:20:35.326Z,4.95
2019-02-04T13:26:39.667Z,5.03
2019-02-04T13:32:44.060Z,5.20
2019-02-04T13:38:48.433Z,3.80
2019-02-04T13:44:53.667Z,3.70
2019-02-04T13:50:57.939Z,4.22
2019-02-04T13:57:03.749Z,7.33
2019-02-04T14:03:08.736Z,3.47
2019-02-04T14:09:20.508Z,4.75
2019-02-04T14:15:24.977Z,4.50
2019-02-04T14:21:29.596Z,4.37
2019-02-04T14:27:33.899Z,4.47
2019-02-04T14:33:38.232Z,4.33
2019-02-04T14:39:42.515Z,5.47
2019-02-04T14:46:21.904Z,4.87
2019-02-04T14:52:43.340Z,4.50
2019-02-04T14:59:46.531Z,3.85
2019-02-04T15:06:01.546Z,5.50
2019-02-04T15:12:26.506Z,4.60
2019-02-04T15:19:08.933Z,4.03
2019-02-04T15:26:00.635Z,9.00
2019-02-04T15:32:34.281Z,5.45
2019-02-04T15:39:02.574Z,5.03
2019-02-04T15:45:37.309Z,5.33
2019-02-04T15:51:50.933Z,4.90
2019-02-04T15:57:55.377Z,5.67
2019-02-04T16:04:01.366Z,5.40
2019-02-04T16:10:08.636Z,4.33
2019-02-04T16:16:12.870Z,4.80
2019-02-04T16:22:17.182Z,4.62
2019-02-04T16:28:21.524Z,4.83
2019-02-04T16:34:25.824Z,7.03
2019-02-04T16:40:30.107Z,5.25
2019-02-04T16:46:34.500Z,6.60
2019-02-04T16:52:38.820Z,5.17
2019-02-04T16:58:43.196Z,5.20
2019-02-04T17:04:47.460Z,5.28
2019-02-04T17:10:51.854Z,10.32
2019-02-04T17:16:56.051Z,7.42
2019-02-04T17:23:00.338Z,5.58
2019-02-04T17:29:04.740Z,5.75
2019-02-04T17:35:09.300Z,7.17
2019-02-04T17:41:13.628Z,8.03
2019-02-04T17:47:17.970Z,4.33
2019-02-04T17:53:33.633Z,9.30
2019-02-04T17:59:28.435Z,8.28
2019-02-04T18:05:32.885Z,9.05
2019-02-04T18:11:37.201Z,8.63
2019-02-04T18:17:41.537Z,11.28
2019-02-04T18:23:46.377Z,8.20
2019-02-04T18:29:50.957Z,8.75
2019-02-04T18:35:55.259Z,8.83
2019-02-04T18:41:59.607Z,9.95
2019-02-04T18:48:04.879Z,6.58
2019-02-04T18:54:09.561Z,6.28
2019-02-04T19:00:16.666Z,11.08
2019-02-04T19:06:21.043Z,13.95
2019-02-04T19:12:25.417Z,9.58
2019-02-04T19:18:30.974Z,10.20
2019-02-04T19:24:35.363Z,9.43
2019-02-04T19:30:46.286Z,10.48
2019-02-04T19:36:50.477Z,14.15
2019-02-04T19:42:54.863Z,13.15
2019-02-04T19:48:59.141Z,12.10
2019-02-04T19:55:03.618Z,12.18
2019-02-04T20:01:08.183Z,12.63
2019-02-04T20:07:12.980Z,13.03
2019-02-04T20:13:17.746Z,13.65
2019-02-04T20:19:24.764Z,12.93
2019-02-04T20:25:30.259Z,12.68
2019-02-04T20:31:34.656Z,11.97
2019-02-04T20:37:38.937Z,13.83
2019-02-04T20:43:43.305Z,11.68
2019-02-04T20:49:47.656Z,11.83
2019-02-04T20:55:52.171Z,15.15
2019-02-04T21:01:56.616Z,9.95
2019-02-04T21:08:00.973Z,14.50
2019-02-04T21:14:05.689Z,14.33
2019-02-04T21:20:13.747Z,16.27
2019-02-04T21:26:18.084Z,15.53
2019-02-04T21:32:22.559Z,12.68
2019-02-04T21:38:26.873Z,14.13
2019-02-04T21:44:31.134Z,14.90
2019-02-04T21:50:35.466Z,15.30
2019-02-04T21:56:40.233Z,17.80
2019-02-04T22:02:44.636Z,16.50
2019-02-04T22:08:48.949Z,15.63
2019-02-04T22:14:53.359Z,17.67
2019-02-04T22:20:57.685Z,17.53
2019-02-04T22:27:02.118Z,16.13
2019-02-04T22:33:06.507Z,12.47
2019-02-04T22:39:13.893Z,16.77
2019-02-04T22:45:18.251Z,17.30
2019-02-04T22:51:22.640Z,17.83
2019-02-04T22:57:26.982Z,16.57
2019-02-04T23:03:31.236Z,17.55
2019-02-04T23:09:35.536Z,18.10
2019-02-04T23:15:39.917Z,18.23
2019-02-04T23:21:44.547Z,16.83
2019-02-04T23:27:48.766Z,17.33
2019-02-04T23:33:53.045Z,14.93
2019-02-04T23:39:57.410Z,14.75
2019-02-04T23:46:01.750Z,16.10
2019-02-04T23:52:06.446Z,12.53
2019-02-04T23:58:10.676Z,15.53
